Joplin Regional Airport
KJLN : now visible

Airfield :











YOU CAN JOIN US ON...

 
LOGIN :

Register | Disclaimer

   EN    FR    IT 

 









Legend :    VFR   Marginal VFR   IFR   Intensive IFR   Very Intensive IFR
Visi :
Ceiling :
>= 8 km
>= 3000ft
5 to 8 km
1000 to 3000 ft
1500m to 5 km
500 to 1000 ft
800 to 1500m
200 to 500 ft
< 800m
< 200 ft
Symbols :   Thunderstorms  Fog  Heavy snow  Heavy precipitations  Wind > 20 kt






- Airport Elevation : 981 ft
- IATA code : JLN


KJLN - Joplin Regional

CURRENT METAR :
  • 172353Z 12006KT 9SM -RA OVC003 03/03 A3001 RMK AO2 RAB35 SLP166 P0000 60008 T00330028 10039 20022 58030

EXPIRED METARs :
  • 172344Z 13006KT 7SM -RA OVC003 03/03 A3002 RMK AO2 RAB35 P0000 T00330028
  • 172253Z 13006KT 6SM BR OVC006 04/03 A3004 RMK AO2 SLP176 T00390028
  • 172153Z 14005KT 10SM OVC007 04/03 A3008 RMK AO2 RAE39 SLP191 P0002 T00390028

TAF KJLN
Valid from the 18 at 00:00 until the 19 at 00:00 UTC


172320Z 1800/1824 16012G18KT 6SM -RA OVC006 WS020/20040KT
TEMPO 1803/1804 2SM RA OVC004
FM180400 18019G28KT 4SM BR OVC007 WS020/21050KT
TEMPO 1804/1805 2SM -RA OVC003
FM180800 24022G31KT P6SM OVC008 WS020/26050KT
FM181000 25021G29KT P6SM OVC020 WS020/28045KT
FM181200 28019G27KT P6SM BKN020
FM182000 31017KT P6SM SKC



MET'MAP, your aeronautical weather chart ! - Copyright ORBIFLY December 2007 - Disclaimer

ORBIFLY MET'MAP TEAM :

Programming & Development : Alexandra Zaïnal
Concept & original design : Baudouin d'Aumeries
Assistance for programming : Marc-Olivier Méhu
Technical & hardware support : Manuel Goepfert

Contact : metmap@orbifly.com




SOURCES & CREDITS :

   NOAA       Earth
Advisory